Time,TemperatureF,DewpointF,PressureIn,WindDirection,WindDirectionDegrees,WindSpeedMPH,WindSpeedGustMPH,Humidity,HourlyPrecipIn,Conditions,Clouds,dailyrainin,SoftwareType,DateUTC
2013-04-16 00:02:00,47.9,34.3,29.94,North,11,3.0,15.0,59,0.00,,---,0.00,VWS V13.01,2013-04-16 07:02:00,
2013-04-16 00:32:00,47.6,34.0,29.93,NW,325,2.0,12.0,59,0.00,,---,0.00,VWS V13.01,2013-04-16 07:32:00,
2013-04-16 01:02:00,47.1,33.5,29.94,NNW,329,7.0,10.0,59,0.00,,---,0.00,VWS V13.01,2013-04-16 08:02:00,
2013-04-16 01:31:00,46.0,32.5,29.94,NNW,340,0.0,7.0,59,0.00,,---,0.00,VWS V13.01,2013-04-16 08:31:00,
2013-04-16 02:02:00,44.9,31.5,29.94,ESE,123,0.0,5.0,59,0.00,,---,0.00,VWS V13.01,2013-04-16 09:02:00,
2013-04-16 02:31:00,41.5,29.1,29.94,ESE,122,2.0,3.0,61,0.00,,---,0.00,VWS V13.01,2013-04-16 09:31:00,
2013-04-16 03:02:00,42.0,29.1,29.95,ESE,121,1.0,2.0,60,0.00,,---,0.00,VWS V13.01,2013-04-16 10:02:00,
2013-04-16 03:32:00,40.1,26.9,29.95,ESE,118,2.0,4.0,59,0.00,,---,0.00,VWS V13.01,2013-04-16 10:32:00,
2013-04-16 04:01:00,39.8,25.8,29.95,ESE,118,2.0,4.0,57,0.00,,---,0.00,VWS V13.01,2013-04-16 11:01:00,
2013-04-16 04:32:00,39.3,24.5,29.95,ESE,113,3.0,4.0,55,0.00,,---,0.00,VWS V13.01,2013-04-16 11:32:00,
2013-04-16 05:02:00,39.4,22.8,29.96,ESE,112,2.0,4.0,51,0.00,,---,0.00,VWS V13.01,2013-04-16 12:02:00,
2013-04-16 05:31:00,39.4,22.3,29.97,ESE,112,2.0,4.0,50,0.00,,---,0.00,VWS V13.01,2013-04-16 12:31:00,
2013-04-16 06:02:00,38.7,21.7,29.97,ESE,112,2.0,5.0,50,0.00,,---,0.00,VWS V13.01,2013-04-16 13:02:00,
2013-04-16 06:32:00,37.9,19.5,29.98,ESE,111,2.0,4.0,47,0.00,,---,0.00,VWS V13.01,2013-04-16 13:32:00,
2013-04-16 07:02:00,39.0,20.5,29.99,ESE,117,2.0,6.0,47,0.00,,---,0.00,VWS V13.01,2013-04-16 14:02:00,
2013-04-16 07:32:00,41.1,23.9,29.99,ESE,104,0.0,5.0,50,0.00,,---,0.00,VWS V13.01,2013-04-16 14:32:00,
2013-04-16 08:02:00,46.6,30.4,30.00,ESE,103,1.0,4.0,53,0.00,,---,0.00,VWS V13.01,2013-04-16 15:02:00,
2013-04-16 08:32:00,50.7,35.1,30.00,ESE,110,3.0,4.0,55,0.00,,---,0.00,VWS V13.01,2013-04-16 15:32:00,
2013-04-16 09:02:00,53.6,37.4,29.99,WNW,296,1.0,7.0,54,0.00,,---,0.00,VWS V13.01,2013-04-16 16:02:00,
2013-04-16 09:32:00,54.5,38.7,29.75,WNW,282,7.0,10.0,55,0.00,,---,0.00,VWS V13.01,2013-04-16 16:32:00,
2013-04-16 10:02:00,54.2,38.4,29.62,NW,317,9.0,13.0,55,0.00,,---,0.00,VWS V13.01,2013-04-16 17:02:00,
2013-04-16 10:31:00,54.6,38.3,28.98,NNW,331,3.0,13.0,54,0.00,,---,0.00,VWS V13.01,2013-04-16 17:31:00,
2013-04-16 11:02:00,54.5,38.2,28.76,NW,311,5.0,19.0,54,0.00,,---,0.00,VWS V13.01,2013-04-16 18:02:00,
2013-04-16 11:32:00,54.2,37.0,29.17,NW,311,7.0,20.0,52,0.00,,---,0.00,VWS V13.01,2013-04-16 18:32:00,
2013-04-16 12:02:00,54.4,37.6,29.47,NW,321,10.0,23.0,53,0.00,,---,0.00,VWS V13.01,2013-04-16 19:02:00,
2013-04-16 12:32:00,54.5,37.7,29.75,NW,321,11.0,23.0,53,0.00,,---,0.00,VWS V13.01,2013-04-16 19:32:00,
2013-04-16 13:02:00,54.5,38.2,29.76,WNW,290,25.0,26.0,54,0.00,,---,0.00,VWS V13.01,2013-04-16 20:02:00,
2013-04-16 13:31:00,55.0,38.7,29.96,NNW,328,17.0,28.0,54,0.00,,---,0.00,VWS V13.01,2013-04-16 20:31:00,
2013-04-16 14:02:00,54.7,38.4,29.88,NNW,339,13.0,31.0,54,0.00,,---,0.00,VWS V13.01,2013-04-16 21:02:00,
2013-04-16 14:32:00,54.8,38.5,29.97,WNW,287,6.0,32.0,54,0.00,,---,0.00,VWS V13.01,2013-04-16 21:32:00,
2013-04-16 15:01:00,55.1,39.2,29.97,NNW,332,12.0,33.0,55,0.00,,---,0.00,VWS V13.01,2013-04-16 22:01:00,
2013-04-16 15:32:00,55.2,39.3,29.96,West,263,14.0,30.0,55,0.00,,---,0.00,VWS V13.01,2013-04-16 22:32:00,
2013-04-16 16:01:00,55.3,39.9,29.95,West,260,17.0,31.0,56,0.00,,---,0.00,VWS V13.01,2013-04-16 23:01:00,
2013-04-16 16:32:00,55.3,39.9,29.92,NW,305,23.0,33.0,56,0.00,,---,0.00,VWS V13.01,2013-04-16 23:32:00,
2013-04-16 17:02:00,54.9,39.5,29.82,West,275,17.0,32.0,56,0.00,,---,0.00,VWS V13.01,2013-04-17 00:02:00,
2013-04-16 17:32:00,54.8,39.4,29.86,WNW,298,20.0,30.0,56,0.00,,---,0.00,VWS V13.01,2013-04-17 00:32:00,
2013-04-16 18:02:00,54.9,39.5,29.90,NW,309,9.0,25.0,56,0.00,,---,0.00,VWS V13.01,2013-04-17 01:02:00,
2013-04-16 18:32:00,55.6,39.7,29.96,West,266,11.0,22.0,55,0.00,,---,0.00,VWS V13.01,2013-04-17 01:32:00,
2013-04-16 19:02:00,54.7,39.3,29.83,West,259,9.0,24.0,56,0.00,,---,0.00,VWS V13.01,2013-04-17 02:02:00,
2013-04-16 19:32:00,53.3,38.9,29.87,WNW,300,3.0,22.0,58,0.00,,---,0.00,VWS V13.01,2013-04-17 02:32:00,
2013-04-16 20:02:00,52.3,37.1,29.93,West,274,5.0,16.0,56,0.00,,---,0.00,VWS V13.01,2013-04-17 03:02:00,
2013-04-16 20:32:00,51.6,36.0,29.95,WNW,301,1.0,11.0,55,0.00,,---,0.00,VWS V13.01,2013-04-17 03:32:00,
2013-04-16 21:02:00,51.5,36.3,29.99,WNW,302,1.0,4.0,56,0.00,,---,0.00,VWS V13.01,2013-04-17 04:02:00,
2013-04-16 21:32:00,51.0,36.3,30.01,WNW,302,0.0,3.0,57,0.00,,---,0.00,VWS V13.01,2013-04-17 04:32:00,
2013-04-16 22:02:00,51.0,36.8,30.02,WNW,298,0.0,5.0,58,0.00,,---,0.00,VWS V13.01,2013-04-17 05:02:00,
2013-04-16 22:32:00,49.9,35.7,30.03,WNW,298,0.0,3.0,58,0.00,,---,0.00,VWS V13.01,2013-04-17 05:32:00,
2013-04-16 23:02:00,50.0,35.8,30.04,West,279,1.0,5.0,58,0.00,,---,0.00,VWS V13.01,2013-04-17 06:02:00,
2013-04-16 23:32:00,49.9,33.5,30.05,WNW,283,2.0,7.0,53,0.00,,---,0.00,VWS V13.01,2013-04-17 06:32:00,